createdAt,value
2018-05-16T04:33:22.720Z,1001.44
2018-05-16T04:34:22.304Z,1001.46
2018-05-16T04:35:21.974Z,1001.42
2018-05-16T04:36:22.876Z,1001.50
2018-05-16T04:37:21.916Z,1001.48
2018-05-16T04:38:21.916Z,1001.49
2018-05-16T04:39:21.892Z,1001.48
2018-05-16T04:40:21.881Z,1001.49
2018-05-16T04:41:21.855Z,1001.53
2018-05-16T04:42:22.851Z,1001.55
2018-05-16T04:43:21.840Z,1001.57
2018-05-16T04:44:21.829Z,1001.63
2018-05-16T04:45:21.817Z,1001.65
2018-05-16T04:46:21.802Z,1001.70
2018-05-16T04:47:21.892Z,1001.75
2018-05-16T04:48:21.784Z,1001.71
2018-05-16T04:49:21.770Z,1001.76
2018-05-16T04:50:21.764Z,1001.77
2018-05-16T04:51:21.753Z,1001.81
2018-05-16T04:52:21.732Z,1001.79
2018-05-16T04:53:21.754Z,1001.84
2018-05-16T04:54:21.716Z,1001.90
2018-05-16T04:55:21.704Z,1001.83
2018-05-16T04:56:21.684Z,1001.89
2018-05-16T04:57:21.684Z,1001.89
2018-05-16T04:58:22.013Z,1001.90
2018-05-16T04:59:21.654Z,1001.91
2018-05-16T05:00:21.657Z,1001.90
2018-05-16T05:01:21.639Z,1001.89
2018-05-16T05:02:21.626Z,1001.93
2018-05-16T05:03:21.613Z,1001.94
2018-05-16T05:04:21.610Z,1001.94
2018-05-16T05:05:21.577Z,1001.95
2018-05-16T05:06:21.570Z,1001.90
2018-05-16T05:07:21.572Z,1001.93
2018-05-16T05:08:21.560Z,1001.95
2018-05-16T05:09:21.682Z,1001.90
2018-05-16T05:10:21.538Z,1001.91
2018-05-16T05:11:21.518Z,1001.87
2018-05-16T05:12:21.518Z,1001.85
2018-05-16T05:13:21.505Z,1001.83
2018-05-16T05:14:21.512Z,1001.83
2018-05-16T05:15:21.515Z,1001.84
2018-05-16T05:16:21.480Z,1001.84
2018-05-16T05:17:21.470Z,1001.85
2018-05-16T05:18:21.492Z,1001.83
2018-05-16T05:19:21.476Z,1001.85
2018-05-16T05:20:21.428Z,1001.83
2018-05-16T05:21:21.464Z,1001.81
2018-05-16T05:22:21.404Z,1001.77
2018-05-16T05:23:21.405Z,1001.78
2018-05-16T05:24:21.383Z,1001.79
2018-05-16T05:25:21.383Z,1001.77
2018-05-16T05:26:21.400Z,1001.78
2018-05-16T05:27:21.356Z,1001.79
2018-05-16T05:28:21.352Z,1001.77
2018-05-16T05:29:21.340Z,1001.84
2018-05-16T05:30:21.420Z,1001.83
2018-05-16T05:31:21.865Z,1001.86
2018-05-16T05:32:21.347Z,1001.84
2018-05-16T05:33:21.293Z,1001.84
2018-05-16T05:34:21.282Z,1001.84
2018-05-16T05:35:21.274Z,1001.88
2018-05-16T05:36:21.255Z,1001.87
2018-05-16T05:37:21.501Z,1001.89
2018-05-16T05:38:21.260Z,1001.94
2018-05-16T05:39:21.885Z,1001.92
2018-05-16T05:40:21.217Z,1001.95
2018-05-16T05:41:21.225Z,1001.94
2018-05-16T05:42:21.214Z,1001.98
2018-05-16T05:43:21.248Z,1001.96
2018-05-16T05:44:21.195Z,1001.97
2018-05-16T05:45:21.218Z,1002.01
2018-05-16T05:46:21.162Z,1002.00
2018-05-16T05:47:21.151Z,1002.03
2018-05-16T05:48:21.130Z,1002.00
2018-05-16T05:49:21.168Z,1002.04
2018-05-16T05:50:21.128Z,1002.07
2018-05-16T05:51:21.427Z,1002.07
2018-05-16T05:52:21.103Z,1002.07
2018-05-16T05:53:21.097Z,1002.04
2018-05-16T05:54:21.878Z,1002.05
2018-05-16T05:55:21.090Z,1002.04
2018-05-16T05:56:21.067Z,1002.00
2018-05-16T05:57:21.089Z,1001.96
2018-05-16T05:58:21.056Z,1001.98
2018-05-16T05:59:21.039Z,1001.96
2018-05-16T06:00:21.022Z,1002.00
2018-05-16T06:01:21.028Z,1001.96
2018-05-16T06:02:21.009Z,1001.92
2018-05-16T06:03:20.989Z,1001.92
2018-05-16T06:04:21.866Z,1001.90
2018-05-16T06:05:20.993Z,1001.95
2018-05-16T06:06:21.136Z,1001.94
2018-05-16T06:07:20.943Z,1001.98
2018-05-16T06:08:20.942Z,1001.96
2018-05-16T06:09:20.936Z,1001.98
2018-05-16T06:10:20.921Z,1001.98
2018-05-16T06:11:20.908Z,1001.91
2018-05-16T06:12:20.977Z,1001.86
2018-05-16T06:13:20.905Z,1001.88
2018-05-16T06:14:20.951Z,1001.90
2018-05-16T06:15:20.887Z,1001.91
2018-05-16T06:16:20.873Z,1001.88
2018-05-16T06:17:20.853Z,1001.92
2018-05-16T06:18:20.854Z,1001.95
2018-05-16T06:19:20.844Z,1001.99
2018-05-16T06:20:20.826Z,1002.01
2018-05-16T06:21:20.816Z,1002.07
2018-05-16T06:22:20.832Z,1002.07
2018-05-16T06:23:20.814Z,1002.07
2018-05-16T06:24:20.784Z,1001.99
2018-05-16T06:25:20.792Z,1001.96
2018-05-16T06:26:20.790Z,1001.98
2018-05-16T06:27:20.878Z,1001.98
2018-05-16T06:28:20.782Z,1002.04
2018-05-16T06:29:20.748Z,1002.07
2018-05-16T06:30:20.734Z,1002.09
2018-05-16T06:31:20.732Z,1002.12
2018-05-16T06:32:20.713Z,1002.14
2018-05-16T06:33:20.927Z,1002.15
2018-05-16T06:34:20.689Z,1002.15
2018-05-16T06:35:20.679Z,1002.17
2018-05-16T06:36:20.692Z,1002.12
2018-05-16T06:37:20.674Z,1002.11
2018-05-16T06:38:20.654Z,1002.10
2018-05-16T06:39:20.714Z,1002.12
2018-05-16T06:40:20.640Z,1002.12
2018-05-16T06:41:20.638Z,1002.21
2018-05-16T06:42:20.622Z,1002.16
2018-05-16T06:43:20.617Z,1002.16
2018-05-16T06:44:20.596Z,1002.13
2018-05-16T06:45:20.592Z,1002.16
2018-05-16T06:46:20.572Z,1002.18
2018-05-16T06:47:20.568Z,1002.18
2018-05-16T06:48:20.942Z,1002.19
2018-05-16T06:49:20.598Z,1002.18
2018-05-16T06:50:20.743Z,1002.22
2018-05-16T06:51:20.527Z,1002.23
2018-05-16T06:52:20.524Z,1002.23
2018-05-16T06:53:20.515Z,1002.23
2018-05-16T06:54:20.502Z,1002.25
2018-05-16T06:55:20.496Z,1002.26
2018-05-16T06:56:20.876Z,1002.27
2018-05-16T06:57:20.483Z,1002.26
2018-05-16T06:58:20.475Z,1002.31
2018-05-16T06:59:20.467Z,1002.31
2018-05-16T07:00:20.469Z,1002.32
2018-05-16T07:01:20.444Z,1002.36
2018-05-16T07:02:20.453Z,1002.40
2018-05-16T07:03:20.434Z,1002.39
2018-05-16T07:04:20.426Z,1002.41
2018-05-16T07:05:20.418Z,1002.39
2018-05-16T07:06:20.425Z,1002.41
2018-05-16T07:07:20.390Z,1002.35
2018-05-16T07:08:20.452Z,1002.41
2018-05-16T07:09:20.371Z,1002.43
2018-05-16T07:10:20.370Z,1002.41
2018-05-16T07:11:20.359Z,1002.41
2018-05-16T07:12:20.340Z,1002.44
2018-05-16T07:13:20.322Z,1002.44
2018-05-16T07:14:20.359Z,1002.43
2018-05-16T07:15:20.317Z,1002.46
2018-05-16T07:16:20.302Z,1002.45
2018-05-16T07:17:20.292Z,1002.43
2018-05-16T07:18:20.285Z,1002.49
2018-05-16T07:19:20.443Z,1002.48
2018-05-16T07:20:20.273Z,1002.50
2018-05-16T07:21:20.252Z,1002.49
2018-05-16T07:22:20.257Z,1002.53
2018-05-16T07:23:20.255Z,1002.53
2018-05-16T07:24:20.228Z,1002.51
2018-05-16T07:25:20.233Z,1002.51
2018-05-16T07:26:20.221Z,1002.53
2018-05-16T07:27:20.206Z,1002.52
2018-05-16T07:28:20.206Z,1002.51
2018-05-16T07:29:20.187Z,1002.49
2018-05-16T07:30:20.351Z,1002.49
2018-05-16T07:31:20.174Z,1002.53
2018-05-16T07:32:20.199Z,1002.50
2018-05-16T07:33:20.162Z,1002.51
2018-05-16T07:34:20.151Z,1002.39
2018-05-16T07:35:20.158Z,1002.56
2018-05-16T07:36:20.177Z,1002.52
2018-05-16T07:37:20.132Z,1002.54
2018-05-16T07:38:20.112Z,1002.58
2018-05-16T07:39:20.114Z,1002.60
2018-05-16T07:40:20.136Z,1002.61
2018-05-16T07:41:20.171Z,1002.58
2018-05-16T07:42:20.082Z,1002.59
2018-05-16T07:43:20.065Z,1002.64
2018-05-16T07:44:20.070Z,1002.60
2018-05-16T07:45:20.065Z,1002.62
2018-05-16T07:46:20.053Z,1002.60
2018-05-16T07:47:20.057Z,1002.61
2018-05-16T07:48:20.034Z,1002.64
2018-05-16T07:49:20.020Z,1002.58
2018-05-16T07:50:20.062Z,1002.62
2018-05-16T07:51:20.017Z,1002.59
2018-05-16T07:52:20.003Z,1002.63
2018-05-16T07:53:20.023Z,1002.63
2018-05-16T07:54:19.978Z,1002.64
2018-05-16T07:55:19.980Z,1002.64
2018-05-16T07:56:19.967Z,1002.61
2018-05-16T07:57:19.983Z,1002.59
2018-05-16T07:58:19.942Z,1002.57
2018-05-16T07:59:19.968Z,1002.57
2018-05-16T08:00:19.933Z,1002.59
2018-05-16T08:01:19.919Z,1002.58
2018-05-16T08:02:19.918Z,1002.58
2018-05-16T08:03:20.481Z,1002.61
2018-05-16T08:04:19.893Z,1002.55
2018-05-16T08:05:19.894Z,1002.55
2018-05-16T08:06:19.888Z,1002.61
2018-05-16T08:07:19.865Z,1002.57
2018-05-16T08:08:19.885Z,1002.55
2018-05-16T08:09:20.002Z,1002.52
2018-05-16T08:10:19.857Z,1002.53
2018-05-16T08:11:19.833Z,1002.53
2018-05-16T08:12:19.948Z,1002.56
2018-05-16T08:13:19.830Z,1002.57
2018-05-16T08:14:19.821Z,1002.54
2018-05-16T08:15:19.844Z,1002.55
2018-05-16T08:16:19.802Z,1002.57
2018-05-16T08:17:19.839Z,1002.56
2018-05-16T08:18:19.787Z,1002.56
2018-05-16T08:19:19.779Z,1002.61
2018-05-16T08:20:19.805Z,1002.61
2018-05-16T08:21:19.764Z,1002.60
2018-05-16T08:22:19.751Z,1002.65
2018-05-16T08:23:19.740Z,1002.63
2018-05-16T08:24:19.804Z,1002.64
2018-05-16T08:25:19.734Z,1002.67
2018-05-16T08:26:19.715Z,1002.67
2018-05-16T08:27:20.013Z,1002.66
2018-05-16T08:28:19.714Z,1002.61
2018-05-16T08:29:19.712Z,1002.69
2018-05-16T08:30:19.841Z,1002.70
2018-05-16T08:31:19.687Z,1002.63
2018-05-16T08:32:19.673Z,1002.68
2018-05-16T08:33:19.676Z,1002.65
2018-05-16T08:34:19.653Z,1002.69
2018-05-16T08:35:19.659Z,1002.68
2018-05-16T08:36:19.655Z,1002.69
2018-05-16T08:37:19.628Z,1002.69
2018-05-16T08:38:19.632Z,1002.66
2018-05-16T08:39:19.616Z,1002.66
2018-05-16T08:40:19.627Z,1002.63
2018-05-16T08:41:19.661Z,1002.65
2018-05-16T08:42:19.606Z,1002.65
2018-05-16T08:43:19.600Z,1002.66
2018-05-16T08:44:19.580Z,1002.68
2018-05-16T08:45:19.586Z,1002.62
2018-05-16T08:46:19.574Z,1002.65
2018-05-16T08:47:19.630Z,1002.69
2018-05-16T08:48:19.553Z,1002.71
2018-05-16T08:49:19.541Z,1002.66
2018-05-16T08:50:19.540Z,1002.63
2018-05-16T08:51:19.540Z,1002.65
2018-05-16T08:52:19.518Z,1002.70
2018-05-16T08:53:19.518Z,1002.71
2018-05-16T08:54:19.518Z,1002.68
2018-05-16T08:55:19.502Z,1002.70
2018-05-16T08:56:19.500Z,1002.69
2018-05-16T08:57:19.499Z,1002.69
2018-05-16T08:58:19.515Z,1002.68
2018-05-16T08:59:19.481Z,1002.66
2018-05-16T09:00:19.459Z,1002.67
2018-05-16T09:01:19.499Z,1002.66
2018-05-16T09:02:19.452Z,1002.66
2018-05-16T09:03:19.566Z,1002.68
2018-05-16T09:04:19.436Z,1002.74
2018-05-16T09:05:19.432Z,1002.72
2018-05-16T09:06:19.427Z,1002.74
2018-05-16T09:07:19.406Z,1002.79
2018-05-16T09:08:19.417Z,1002.78
2018-05-16T09:09:19.433Z,1002.86
2018-05-16T09:10:19.401Z,1002.83
2018-05-16T09:11:19.396Z,1002.84
2018-05-16T09:12:19.389Z,1002.86
2018-05-16T09:13:19.375Z,1002.80
2018-05-16T09:14:19.458Z,1002.81
2018-05-16T09:15:19.364Z,1002.82
2018-05-16T09:16:19.358Z,1002.86
2018-05-16T09:17:19.458Z,1002.87
2018-05-16T09:18:19.345Z,1002.87
2018-05-16T09:19:19.347Z,1002.84
2018-05-16T09:20:19.956Z,1002.87
2018-05-16T09:21:19.332Z,1002.88
2018-05-16T09:22:19.369Z,1002.88
2018-05-16T09:23:19.446Z,1002.84
2018-05-16T09:24:19.310Z,1002.89
2018-05-16T09:25:19.313Z,1002.85
2018-05-16T09:26:19.345Z,1002.83
2018-05-16T09:27:20.889Z,1002.83
2018-05-16T09:28:19.300Z,1002.82
2018-05-16T09:29:19.368Z,1002.84
2018-05-16T09:30:19.386Z,1002.84
2018-05-16T09:31:19.278Z,1002.84
2018-05-16T09:32:19.904Z,1002.83
2018-05-16T09:33:19.263Z,1002.79
2018-05-16T09:34:19.260Z,1002.78
2018-05-16T09:35:24.442Z,1002.78
2018-05-16T09:36:19.233Z,1002.76
2018-05-16T09:37:19.322Z,1002.80
2018-05-16T09:38:19.274Z,1002.77
2018-05-16T09:39:19.232Z,1002.76
2018-05-16T09:40:19.297Z,1002.75
2018-05-16T09:41:19.216Z,1002.72
2018-05-16T09:42:19.279Z,1002.72
2018-05-16T09:43:19.204Z,1002.67
2018-05-16T09:44:19.225Z,1002.69
2018-05-16T09:45:19.206Z,1002.67
2018-05-16T09:46:19.188Z,1002.64
2018-05-16T09:47:19.181Z,1002.70
2018-05-16T09:48:19.243Z,1002.69
2018-05-16T09:49:19.172Z,1002.71
2018-05-16T09:50:19.164Z,1002.75
2018-05-16T09:51:19.165Z,1002.73
2018-05-16T09:52:19.146Z,1002.77
2018-05-16T09:53:19.150Z,1002.77
2018-05-16T09:54:19.478Z,1002.78
2018-05-16T09:55:19.153Z,1002.74
2018-05-16T09:56:19.129Z,1002.81
2018-05-16T09:57:19.120Z,1002.77
2018-05-16T09:58:19.111Z,1002.80
2018-05-16T09:59:19.197Z,1002.79
2018-05-16T10:00:19.096Z,1002.82
2018-05-16T10:01:19.094Z,1002.84
2018-05-16T10:02:19.085Z,1002.81
2018-05-16T10:03:19.119Z,1002.81
2018-05-16T10:04:19.072Z,1002.83
2018-05-16T10:05:19.067Z,1002.82
2018-05-16T10:06:19.054Z,1002.79
2018-05-16T10:07:20.975Z,1002.82
2018-05-16T10:08:19.062Z,1002.78
2018-05-16T10:09:19.044Z,1002.75
2018-05-16T10:10:19.112Z,1002.75
2018-05-16T10:11:19.032Z,1002.74
2018-05-16T10:12:19.029Z,1002.76
2018-05-16T10:13:19.018Z,1002.76
2018-05-16T10:14:19.022Z,1002.78
2018-05-16T10:15:19.021Z,1002.81
2018-05-16T10:16:18.998Z,1002.73
2018-05-16T10:17:19.042Z,1002.74
2018-05-16T10:18:18.992Z,1002.74
2018-05-16T10:19:18.985Z,1002.72
2018-05-16T10:20:19.124Z,1002.72
2018-05-16T10:21:18.970Z,1002.75
2018-05-16T10:22:18.967Z,1002.79
2018-05-16T10:23:19.020Z,1002.78
2018-05-16T10:24:18.953Z,1002.77
2018-05-16T10:25:18.942Z,1002.78
2018-05-16T10:26:18.937Z,1002.77
2018-05-16T10:27:18.925Z,1002.80
2018-05-16T10:28:18.932Z,1002.78
2018-05-16T10:29:18.928Z,1002.87
2018-05-16T10:30:18.921Z,1002.90
2018-05-16T10:31:18.910Z,1002.88
2018-05-16T10:32:18.937Z,1002.86
2018-05-16T10:33:18.940Z,1002.89
2018-05-16T10:34:18.892Z,1002.92
2018-05-16T10:35:18.884Z,1002.96
2018-05-16T10:36:18.881Z,1002.99
2018-05-16T10:37:18.875Z,1002.99
2018-05-16T10:38:18.864Z,1003.00
2018-05-16T10:39:18.853Z,1003.00
2018-05-16T10:40:18.854Z,1003.04
2018-05-16T10:41:18.896Z,1002.98
2018-05-16T10:42:18.847Z,1003.00
2018-05-16T10:43:18.861Z,1003.00
2018-05-16T10:44:18.823Z,1002.99
2018-05-16T10:45:18.830Z,1002.97
2018-05-16T10:46:18.819Z,1002.99
2018-05-16T10:47:18.810Z,1002.97
2018-05-16T10:48:18.836Z,1002.96
2018-05-16T10:49:18.791Z,1002.92
2018-05-16T10:50:18.795Z,1002.90
2018-05-16T10:51:18.818Z,1002.84
2018-05-16T10:52:18.854Z,1002.88
2018-05-16T10:53:18.807Z,1002.89
2018-05-16T10:54:18.757Z,1002.89
2018-05-16T10:55:18.762Z,1002.84
2018-05-16T10:56:18.757Z,1002.80
2018-05-16T10:57:18.770Z,1002.84
2018-05-16T10:58:18.766Z,1002.83
2018-05-16T10:59:18.745Z,1002.80
2018-05-16T11:00:18.727Z,1002.81
2018-05-16T11:01:18.729Z,1002.78
2018-05-16T11:02:18.716Z,1002.77
2018-05-16T11:03:18.789Z,1002.78
2018-05-16T11:04:18.708Z,1002.79
2018-05-16T11:05:18.696Z,1002.76
2018-05-16T11:06:18.700Z,1002.76
2018-05-16T11:07:18.697Z,1002.79
2018-05-16T11:08:18.680Z,1002.76
2018-05-16T11:09:18.664Z,1002.75
2018-05-16T11:10:18.676Z,1002.71
2018-05-16T11:11:18.688Z,1002.70
2018-05-16T11:12:18.647Z,1002.68
2018-05-16T11:13:18.788Z,1002.65
2018-05-16T11:14:18.641Z,1002.67
2018-05-16T11:15:18.643Z,1002.62
2018-05-16T11:16:18.631Z,1002.67
2018-05-16T11:17:18.616Z,1002.65
2018-05-16T11:18:18.612Z,1002.68
2018-05-16T11:19:18.613Z,1002.69
2018-05-16T11:20:18.603Z,1002.72
2018-05-16T11:21:18.626Z,1002.71
2018-05-16T11:22:18.587Z,1002.74
2018-05-16T11:23:18.586Z,1002.73
2018-05-16T11:24:18.578Z,1002.73
2018-05-16T11:25:18.566Z,1002.75
2018-05-16T11:26:18.933Z,1002.74
2018-05-16T11:27:18.557Z,1002.69
2018-05-16T11:28:18.560Z,1002.75
2018-05-16T11:29:18.540Z,1002.74
2018-05-16T11:30:18.549Z,1002.74
2018-05-16T11:31:18.546Z,1002.72
2018-05-16T11:32:18.572Z,1002.71
2018-05-16T11:33:18.526Z,1002.71
2018-05-16T11:34:18.528Z,1002.72
2018-05-16T11:35:18.510Z,1002.73
2018-05-16T11:36:18.498Z,1002.73
2018-05-16T11:37:18.496Z,1002.71
2018-05-16T11:38:18.539Z,1002.72
2018-05-16T11:39:18.490Z,1002.70
2018-05-16T11:40:18.474Z,1002.70
2018-05-16T11:41:18.480Z,1002.68
2018-05-16T11:42:18.498Z,1002.67
2018-05-16T11:43:18.469Z,1002.71
2018-05-16T11:44:18.459Z,1002.71
2018-05-16T11:45:18.452Z,1002.69
2018-05-16T11:46:18.450Z,1002.69
2018-05-16T11:47:18.480Z,1002.69
2018-05-16T11:48:18.463Z,1002.70
2018-05-16T11:49:18.446Z,1002.72
2018-05-16T11:50:18.446Z,1002.71
2018-05-16T11:51:18.451Z,1002.68
2018-05-16T11:52:18.408Z,1002.67
2018-05-16T11:53:18.408Z,1002.67
2018-05-16T11:54:18.535Z,1002.71
2018-05-16T11:55:18.383Z,1002.94
2018-05-16T11:56:18.401Z,1003.21
2018-05-16T11:57:18.389Z,1003.34
2018-05-16T11:58:18.380Z,1003.16
2018-05-16T11:59:18.424Z,1002.93
2018-05-16T12:00:18.373Z,1002.93
2018-05-16T12:01:18.354Z,1002.72
2018-05-16T12:02:18.360Z,1002.68
2018-05-16T12:03:18.360Z,1002.61
2018-05-16T12:04:18.412Z,1002.64
2018-05-16T12:05:18.343Z,1002.63
2018-05-16T12:06:18.338Z,1002.61
2018-05-16T12:07:18.338Z,1002.56
2018-05-16T12:08:18.329Z,1002.64
2018-05-16T12:09:18.405Z,1002.62
2018-05-16T12:10:18.338Z,1002.66
2018-05-16T12:11:18.343Z,1002.59
2018-05-16T12:12:18.316Z,1002.60
2018-05-16T12:13:18.311Z,1002.60
2018-05-16T12:14:18.310Z,1002.61
2018-05-16T12:15:18.322Z,1002.59
2018-05-16T12:16:18.291Z,1002.64
2018-05-16T12:17:18.294Z,1002.61
2018-05-16T12:18:18.279Z,1002.66
2018-05-16T12:19:18.277Z,1002.63
2018-05-16T12:20:18.301Z,1002.60
2018-05-16T12:21:18.275Z,1002.65
2018-05-16T12:22:18.277Z,1002.61
2018-05-16T12:23:18.262Z,1002.64
2018-05-16T12:24:18.263Z,1002.67
2018-05-16T12:25:18.298Z,1002.68
2018-05-16T12:26:18.249Z,1002.67
2018-05-16T12:27:18.252Z,1002.72
2018-05-16T12:28:18.287Z,1002.68
2018-05-16T12:29:18.274Z,1002.70
2018-05-16T12:30:18.237Z,1002.69
2018-05-16T12:31:18.221Z,1002.68
2018-05-16T12:32:18.219Z,1002.69
2018-05-16T12:33:18.296Z,1002.68
2018-05-16T12:34:18.203Z,1002.70
2018-05-16T12:35:18.223Z,1002.69
2018-05-16T12:36:18.203Z,1002.70
2018-05-16T12:37:18.249Z,1002.68
2018-05-16T12:38:18.186Z,1002.64
2018-05-16T12:39:18.243Z,1002.62
2018-05-16T12:40:18.185Z,1002.61
2018-05-16T12:41:18.177Z,1002.58
2018-05-16T12:42:18.175Z,1002.54
2018-05-16T12:43:18.172Z,1002.53
2018-05-16T12:44:18.179Z,1002.50
2018-05-16T12:45:18.183Z,1002.47
2018-05-16T12:46:18.156Z,1002.49
2018-05-16T12:47:18.152Z,1002.45
2018-05-16T12:48:18.155Z,1002.38
2018-05-16T12:49:18.244Z,1002.39
2018-05-16T12:50:18.177Z,1002.36
2018-05-16T12:51:18.142Z,1002.33
2018-05-16T12:52:18.133Z,1002.33
2018-05-16T12:53:18.117Z,1002.28
2018-05-16T12:54:18.130Z,1002.28
2018-05-16T12:55:18.277Z,1002.27
2018-05-16T12:56:18.217Z,1002.23
2018-05-16T12:57:18.187Z,1002.23
2018-05-16T12:58:18.137Z,1002.26
2018-05-16T12:59:18.095Z,1002.25
2018-05-16T13:00:18.092Z,1002.23
2018-05-16T13:01:18.135Z,1002.23
2018-05-16T13:02:18.088Z,1002.28
2018-05-16T13:03:18.090Z,1002.24
2018-05-16T13:04:18.078Z,1002.23
2018-05-16T13:05:18.073Z,1002.29
2018-05-16T13:06:18.119Z,1002.22
2018-05-16T13:07:18.054Z,1002.23
2018-05-16T13:08:18.055Z,1002.19
2018-05-16T13:09:18.045Z,1002.25
2018-05-16T13:10:18.045Z,1002.24
2018-05-16T13:11:18.046Z,1002.15
2018-05-16T13:12:18.069Z,1002.14
2018-05-16T13:13:18.034Z,1002.11
2018-05-16T13:14:18.033Z,1002.12
2018-05-16T13:15:18.027Z,1002.10
2018-05-16T13:16:18.039Z,1002.09
2018-05-16T13:17:18.298Z,1002.06
2018-05-16T13:18:18.080Z,1002.07
2018-05-16T13:19:18.003Z,1002.07
2018-05-16T13:20:18.016Z,1001.94
2018-05-16T13:21:17.996Z,1001.96
2018-05-16T13:22:18.012Z,1001.96
2018-05-16T13:23:17.993Z,1001.96
2018-05-16T13:24:17.996Z,1001.96
2018-05-16T13:25:18.016Z,1001.94
2018-05-16T13:26:17.969Z,1001.94
2018-05-16T13:27:17.979Z,1001.96
2018-05-16T13:28:17.971Z,1001.91
2018-05-16T13:29:18.036Z,1001.89
2018-05-16T13:30:17.970Z,1001.89
2018-05-16T13:31:17.950Z,1001.87
2018-05-16T13:32:17.955Z,1001.88
2018-05-16T13:33:17.952Z,1001.85
2018-05-16T13:34:17.936Z,1001.79
2018-05-16T13:35:17.986Z,1001.84
2018-05-16T13:36:17.974Z,1001.82
2018-05-16T13:37:18.084Z,1001.76
2018-05-16T13:38:18.001Z,1001.75
2018-05-16T13:39:17.921Z,1001.72
2018-05-16T13:40:17.922Z,1001.69
2018-05-16T13:41:17.919Z,1001.66
2018-05-16T13:42:17.913Z,1001.64
2018-05-16T13:43:18.111Z,1001.68
2018-05-16T13:44:17.909Z,1001.69
2018-05-16T13:45:17.904Z,1001.69
2018-05-16T13:46:17.913Z,1001.71
2018-05-16T13:47:17.897Z,1001.72
2018-05-16T13:48:17.928Z,1001.76
2018-05-16T13:49:17.881Z,1001.72
2018-05-16T13:50:17.902Z,1001.72
2018-05-16T13:51:17.875Z,1001.70
2018-05-16T13:52:17.867Z,1001.70
2018-05-16T13:53:17.897Z,1001.72
2018-05-16T13:54:17.901Z,1001.79
2018-05-16T13:55:17.847Z,1001.81
2018-05-16T13:56:17.851Z,1001.85
2018-05-16T13:57:18.056Z,1001.92
2018-05-16T13:58:17.845Z,1001.99
2018-05-16T13:59:17.843Z,1001.98
2018-05-16T14:00:17.831Z,1001.94
2018-05-16T14:01:17.818Z,1001.81
2018-05-16T14:02:18.127Z,1001.83
2018-05-16T14:03:17.815Z,1002.01
2018-05-16T14:04:17.802Z,1002.02
2018-05-16T14:05:17.806Z,1002.08
2018-05-16T14:06:17.804Z,1002.14
2018-05-16T14:07:17.813Z,1002.10
2018-05-16T14:08:17.796Z,1002.12
2018-05-16T14:09:17.789Z,1002.04
2018-05-16T14:10:17.790Z,1001.96
2018-05-16T14:11:17.767Z,1001.95
2018-05-16T14:12:17.791Z,1001.89
2018-05-16T14:13:17.758Z,1001.91
2018-05-16T14:14:17.766Z,1001.92
2018-05-16T14:15:17.841Z,1001.85
2018-05-16T14:16:17.742Z,1001.85
2018-05-16T14:17:17.770Z,1001.82
2018-05-16T14:18:17.764Z,1001.81
2018-05-16T14:19:17.727Z,1001.75
2018-05-16T14:20:17.715Z,1001.65
2018-05-16T14:21:17.718Z,1001.62
2018-05-16T14:22:17.740Z,1001.67
2018-05-16T14:23:17.701Z,1001.66
2018-05-16T14:24:17.730Z,1001.64
2018-05-16T14:25:17.692Z,1001.68
2018-05-16T14:26:17.680Z,1001.66
2018-05-16T14:27:17.676Z,1001.69
2018-05-16T14:28:17.680Z,1001.72
2018-05-16T14:29:17.813Z,1001.70
2018-05-16T14:30:17.667Z,1001.67
2018-05-16T14:31:17.646Z,1001.64
2018-05-16T14:32:17.645Z,1001.56
2018-05-16T14:33:17.639Z,1001.47
2018-05-16T14:34:17.631Z,1001.43
2018-05-16T14:35:17.998Z,1001.46
2018-05-16T14:36:17.616Z,1001.50
2018-05-16T14:37:17.613Z,1001.65
2018-05-16T14:38:17.607Z,1001.78
2018-05-16T14:39:17.614Z,1001.90
2018-05-16T14:40:17.590Z,1001.98
2018-05-16T14:41:17.629Z,1002.04
2018-05-16T14:42:17.574Z,1002.10
2018-05-16T14:43:17.560Z,1002.05
2018-05-16T14:44:17.563Z,1002.03
2018-05-16T14:45:18.148Z,1002.02
2018-05-16T14:46:17.574Z,1002.03
2018-05-16T14:47:17.675Z,1002.03
2018-05-16T14:48:17.533Z,1002.04
2018-05-16T14:49:17.640Z,1002.06
2018-05-16T14:50:17.518Z,1002.12
2018-05-16T14:51:17.520Z,1002.13
2018-05-16T14:52:17.525Z,1002.15
2018-05-16T14:53:17.504Z,1002.01
2018-05-16T14:54:17.518Z,1001.88
2018-05-16T14:55:17.490Z,1001.81
2018-05-16T14:56:17.609Z,1001.74
2018-05-16T14:57:17.478Z,1001.58
2018-05-16T14:58:17.467Z,1001.52
2018-05-16T14:59:17.451Z,1001.54
2018-05-16T15:00:17.442Z,1001.52
2018-05-16T15:01:17.439Z,1001.42
2018-05-16T15:02:17.459Z,1001.35
2018-05-16T15:03:17.435Z,1001.34
2018-05-16T15:04:17.413Z,1001.35
2018-05-16T15:05:17.414Z,1001.35
2018-05-16T15:06:17.425Z,1001.28
2018-05-16T15:07:17.432Z,1001.24
2018-05-16T15:08:17.386Z,1001.24
2018-05-16T15:09:17.394Z,1001.30
2018-05-16T15:10:17.374Z,1001.35
2018-05-16T15:11:17.364Z,1001.40
2018-05-16T15:12:17.358Z,1001.46
2018-05-16T15:13:17.354Z,1001.43
2018-05-16T15:14:17.350Z,1001.46
2018-05-16T15:15:17.331Z,1001.48
2018-05-16T15:16:17.327Z,1001.47
2018-05-16T15:17:17.382Z,1001.54
2018-05-16T15:18:17.318Z,1001.53
2018-05-16T15:19:17.305Z,1001.59
2018-05-16T15:20:17.292Z,1001.68
2018-05-16T15:21:17.349Z,1001.78
2018-05-16T15:22:17.300Z,1001.92
2018-05-16T15:23:17.304Z,1002.04
2018-05-16T15:24:17.276Z,1002.13
2018-05-16T15:25:17.260Z,1002.26
2018-05-16T15:26:17.338Z,1002.24
2018-05-16T15:27:18.218Z,1002.09
2018-05-16T15:28:17.245Z,1002.34
2018-05-16T15:29:18.125Z,1001.92
2018-05-16T15:30:17.229Z,1001.95
2018-05-16T15:31:17.487Z,1001.87
2018-05-16T15:32:17.212Z,1001.89
2018-05-16T15:33:17.192Z,1001.82
2018-05-16T15:34:17.191Z,1001.48
2018-05-16T15:35:17.169Z,1001.36
2018-05-16T15:36:17.173Z,1001.35
2018-05-16T15:37:17.197Z,1001.36
2018-05-16T15:38:17.195Z,1001.42
2018-05-16T15:39:17.158Z,1001.55
2018-05-16T15:40:19.149Z,1001.62
2018-05-16T15:41:17.169Z,1001.72
2018-05-16T15:42:17.132Z,1001.83
2018-05-16T15:43:17.118Z,1002.03
2018-05-16T15:44:17.638Z,1002.10
2018-05-16T15:45:17.096Z,1002.12
2018-05-16T15:46:17.112Z,1002.01
2018-05-16T15:47:17.119Z,1001.97
2018-05-16T15:48:17.117Z,1001.92
2018-05-16T15:49:17.066Z,1001.89
2018-05-16T15:50:17.109Z,1001.99
2018-05-16T15:51:17.071Z,1002.35
2018-05-16T15:52:17.055Z,1003.02
2018-05-16T15:53:17.116Z,1003.01
2018-05-16T15:54:17.028Z,1003.33
2018-05-16T15:55:17.640Z,1003.41
2018-05-16T15:56:17.003Z,1002.99
2018-05-16T15:57:17.178Z,1003.49
2018-05-16T15:58:16.995Z,1003.09
2018-05-16T15:59:16.994Z,1002.75
2018-05-16T16:00:16.962Z,1002.90
2018-05-16T16:01:16.957Z,1002.85
2018-05-16T16:02:16.947Z,1002.55
2018-05-16T16:03:17.003Z,1002.41
2018-05-16T16:04:16.928Z,1002.36
2018-05-16T16:05:16.910Z,1002.40
2018-05-16T16:06:16.910Z,1002.35
2018-05-16T16:07:17.649Z,1002.11
2018-05-16T16:08:16.990Z,1002.16
2018-05-16T16:09:16.963Z,1002.26
2018-05-16T16:10:16.945Z,1002.19
2018-05-16T16:11:16.849Z,1002.06
2018-05-16T16:12:16.848Z,1002.11
2018-05-16T16:13:16.853Z,1002.12
2018-05-16T16:14:17.195Z,1001.99
2018-05-16T16:15:16.833Z,1001.90
2018-05-16T16:16:16.855Z,1001.81
2018-05-16T16:17:16.830Z,1001.85
2018-05-16T16:18:17.652Z,1001.96
2018-05-16T16:19:17.669Z,1001.98
2018-05-16T16:20:16.864Z,1002.06
2018-05-16T16:21:18.649Z,1002.07
2018-05-16T16:22:16.742Z,1002.18
2018-05-16T16:23:16.757Z,1002.17
2018-05-16T16:24:17.646Z,1002.27
2018-05-16T16:25:16.764Z,1002.28
2018-05-16T16:26:16.729Z,1002.28
2018-05-16T16:27:16.716Z,1002.19
2018-05-16T16:28:16.755Z,1002.07
2018-05-16T16:29:16.802Z,1001.96
2018-05-16T16:30:16.699Z,1001.89
2018-05-16T16:31:16.692Z,1001.92
2018-05-16T16:32:16.650Z,1002.05
2018-05-16T16:33:17.171Z,1002.19
2018-05-16T16:34:16.633Z,1002.02
2018-05-16T16:35:16.641Z,1001.80
2018-05-16T16:36:16.690Z,1001.86
2018-05-16T16:37:16.594Z,1001.91
2018-05-16T16:38:16.591Z,1001.92